createdAt,value
2017-03-15T20:48:09.849Z,28.59
2017-03-15T20:49:18.630Z,27.82
2017-03-15T20:50:27.454Z,27.14
2017-03-15T20:51:36.542Z,27.82
2017-03-15T20:52:45.327Z,28.2
2017-03-15T20:53:54.094Z,28.5
2017-03-15T20:55:02.896Z,28.11
2017-03-15T20:56:12.008Z,28.2
2017-03-15T20:57:20.788Z,28.2
2017-03-15T20:58:29.558Z,28.2
2017-03-15T20:59:38.319Z,28.4
2017-03-15T21:00:47.093Z,28.11
2017-03-15T21:01:56.061Z,28.11
2017-03-15T21:03:04.833Z,28.02
2017-03-15T21:04:13.936Z,28.11
2017-03-15T21:05:22.689Z,28.2
2017-03-15T21:06:31.459Z,27.82
2017-03-15T21:07:40.226Z,28.11
2017-03-15T21:08:48.989Z,28.3
2017-03-15T21:09:58.358Z,28.2
2017-03-15T21:11:07.096Z,28.22
2017-03-15T21:12:16.426Z,28.11
2017-03-15T21:13:25.389Z,28.2
2017-03-15T21:14:34.130Z,28.3
2017-03-15T21:15:43.451Z,28.3
2017-03-15T21:16:52.526Z,28.4
2017-03-15T21:18:01.746Z,28.4
2017-03-15T21:19:10.509Z,28.11
2017-03-15T21:20:19.513Z,28.4
2017-03-15T21:21:28.587Z,28.2
2017-03-15T21:22:37.330Z,28.02
2017-03-15T21:23:46.353Z,28.13
2017-03-15T21:24:55.117Z,28.02
2017-03-15T21:26:04.194Z,28.02
2017-03-15T21:27:12.924Z,28.11
2017-03-15T21:28:21.645Z,28.2
2017-03-15T21:29:30.408Z,27.93
2017-03-15T21:30:39.483Z,28.3
2017-03-15T21:31:48.260Z,28.2
2017-03-15T21:32:57.029Z,28.2
2017-03-15T21:34:05.919Z,28.31
2017-03-15T21:35:14.613Z,28.2
2017-03-15T21:36:23.333Z,28.31
2017-03-15T21:37:32.397Z,28.2
2017-03-15T21:38:41.138Z,27.82
2017-03-15T21:39:50.064Z,27.83
2017-03-15T21:40:58.825Z,27.82
2017-03-15T21:42:07.890Z,27.92
2017-03-15T21:43:16.964Z,28.02
2017-03-15T21:44:25.703Z,28.02
2017-03-15T21:45:34.737Z,28.2
2017-03-15T21:46:43.513Z,28.3
2017-03-15T21:47:52.251Z,28.4
2017-03-15T21:49:01.226Z,28.02
2017-03-15T21:50:10.529Z,28.4
2017-03-15T21:51:19.897Z,28.11
2017-03-15T21:52:28.970Z,28.2
2017-03-15T21:53:38.344Z,28.3
2017-03-15T21:54:47.132Z,28.3
2017-03-15T21:55:56.198Z,28.5
2017-03-15T21:57:05.265Z,28.11
2017-03-15T21:58:14.341Z,28.3
2017-03-15T21:59:23.718Z,28.69
2017-03-15T22:00:33.697Z,28.02
2017-03-15T22:01:42.434Z,28.4
2017-03-15T22:02:51.157Z,28.4
2017-03-15T22:04:00.223Z,28.2
2017-03-15T22:05:08.955Z,28.11
2017-03-15T22:06:18.027Z,28.11
2017-03-15T22:07:27.099Z,28.11
2017-03-15T22:08:36.166Z,28.4
2017-03-15T22:09:44.917Z,28.3
2017-03-15T22:10:53.987Z,28.4
2017-03-15T22:12:02.752Z,28.5
2017-03-15T22:13:11.514Z,28.5
2017-03-15T22:14:20.275Z,28.5
2017-03-15T22:15:29.349Z,28.5
2017-03-15T22:16:38.113Z,28.11
2017-03-15T22:17:46.873Z,28.4
2017-03-15T22:18:55.624Z,28.3
2017-03-15T22:20:04.386Z,28.2
2017-03-15T22:21:13.460Z,28.2
2017-03-15T22:22:22.231Z,28.4
2017-03-15T22:23:30.990Z,28.4
2017-03-15T22:24:39.780Z,28.5
2017-03-15T22:25:48.518Z,28.3
2017-03-15T22:26:57.212Z,28.4
2017-03-15T22:28:05.932Z,28.3
2017-03-15T22:29:14.693Z,28.3
2017-03-15T22:30:23.458Z,28.3
2017-03-15T22:31:32.196Z,28.5
2017-03-15T22:32:40.915Z,28.69
2017-03-15T22:33:49.881Z,28.4
2017-03-15T22:34:58.632Z,28.5
2017-03-15T22:36:08.307Z,28.5
2017-03-15T22:37:17.387Z,28.78
2017-03-15T22:38:26.119Z,28.4
2017-03-15T22:39:34.811Z,28.5
2017-03-15T22:40:43.530Z,28.4
2017-03-15T22:41:52.289Z,28.5
2017-03-15T22:43:01.057Z,28.59
2017-03-15T22:44:09.821Z,28.3
2017-03-15T22:45:18.579Z,28.3
2017-03-15T22:46:27.336Z,28.3
2017-03-15T22:47:36.100Z,28.3
2017-03-15T22:48:45.170Z,28.59
2017-03-15T22:49:54.235Z,28.5
2017-03-15T22:51:03.312Z,28.4
2017-03-15T22:52:12.070Z,28.5
2017-03-15T22:53:21.134Z,28.69
2017-03-15T22:54:30.095Z,28.5
2017-03-15T22:55:38.862Z,28.59
2017-03-15T22:56:47.623Z,28.39
2017-03-15T22:57:56.384Z,28.5
2017-03-15T22:59:05.426Z,28.58
2017-03-15T23:00:14.450Z,28.88
2017-03-15T23:01:23.222Z,28.77
2017-03-15T23:02:31.966Z,28.77
2017-03-15T23:03:40.687Z,28.77
2017-03-15T23:04:49.448Z,28.67
2017-03-15T23:05:58.512Z,28.87
2017-03-15T23:07:07.583Z,28.87
2017-03-15T23:08:16.338Z,28.58
2017-03-15T23:09:25.071Z,28.58
2017-03-15T23:10:33.788Z,28.59
2017-03-15T23:11:43.358Z,28.39
2017-03-15T23:12:52.116Z,28.88
2017-03-15T23:14:01.155Z,28.48
2017-03-15T23:15:09.874Z,28.67
2017-03-15T23:16:18.892Z,28.67
2017-03-15T23:17:27.625Z,28.67
2017-03-15T23:18:36.352Z,28.58
2017-03-15T23:19:45.417Z,28.48
2017-03-15T23:20:54.481Z,28.87
2017-03-15T23:22:03.441Z,28.67
2017-03-15T23:23:12.501Z,28.77
2017-03-15T23:24:21.537Z,28.48
2017-03-15T23:25:30.226Z,28.48
2017-03-15T23:26:39.262Z,28.67
2017-03-15T23:27:48.330Z,28.97
2017-03-15T23:28:57.100Z,28.67
2017-03-15T23:30:06.138Z,28.58
2017-03-15T23:31:14.831Z,28.48
2017-03-15T23:32:23.549Z,28.67
2017-03-15T23:33:32.312Z,28.77
2017-03-15T23:34:41.046Z,28.67
2017-03-15T23:35:49.769Z,28.87
2017-03-15T23:36:58.811Z,28.48
2017-03-15T23:38:07.833Z,28.58
2017-03-15T23:39:16.570Z,28.77
2017-03-15T23:40:25.604Z,28.87
2017-03-15T23:41:34.367Z,28.67
2017-03-15T23:42:43.426Z,28.67
2017-03-15T23:43:52.176Z,29.06
2017-03-15T23:45:00.912Z,28.77
2017-03-15T23:46:09.950Z,29.06
2017-03-15T23:47:19.286Z,29.06
2017-03-15T23:48:27.978Z,28.48
2017-03-15T23:49:36.692Z,28.77
2017-03-15T23:50:45.450Z,29.06
2017-03-15T23:51:54.212Z,29.06
2017-03-15T23:53:03.254Z,28.77
2017-03-15T23:54:12.272Z,29.06
2017-03-15T23:55:21.314Z,28.67
2017-03-15T23:56:30.311Z,28.67
2017-03-15T23:57:39.003Z,28.97
2017-03-15T23:58:47.725Z,29.06
2017-03-15T23:59:57.031Z,28.77
